sensor_id;sensor_type;location;lat;lon;timestamp;pressure;altitude;pressure_sealevel;temperature;humidity
62926;BME280;55732;52.248;-0.844;2022-11-15T00:00:49;99505.02;;;9.34;96.84
62926;BME280;55732;52.248;-0.844;2022-11-15T00:03:20;99501.60;;;9.28;96.66
62926;BME280;55732;52.248;-0.844;2022-11-15T00:05:46;99496.72;;;9.24;96.62
62926;BME280;55732;52.248;-0.844;2022-11-15T00:08:13;99489.24;;;9.19;96.45
62926;BME280;55732;52.248;-0.844;2022-11-15T00:10:38;99490.35;;;9.14;96.18
62926;BME280;55732;52.248;-0.844;2022-11-15T00:13:09;99489.52;;;9.10;96.46
62926;BME280;55732;52.248;-0.844;2022-11-15T00:15:36;99488.73;;;9.04;96.40
62926;BME280;55732;52.248;-0.844;2022-11-15T00:18:03;99489.86;;;8.99;96.43
62926;BME280;55732;52.248;-0.844;2022-11-15T00:20:29;99490.09;;;8.94;96.37
62926;BME280;55732;52.248;-0.844;2022-11-15T00:22:55;99489.96;;;8.90;96.35
62926;BME280;55732;52.248;-0.844;2022-11-15T00:25:20;99479.66;;;8.86;96.39
62926;BME280;55732;52.248;-0.844;2022-11-15T00:27:46;99484.10;;;8.82;96.38
62926;BME280;55732;52.248;-0.844;2022-11-15T00:30:11;99477.28;;;8.79;96.57
62926;BME280;55732;52.248;-0.844;2022-11-15T00:32:37;99473.63;;;8.77;96.59
62926;BME280;55732;52.248;-0.844;2022-11-15T00:35:03;99466.10;;;8.74;96.60
62926;BME280;55732;52.248;-0.844;2022-11-15T00:37:29;99463.16;;;8.71;96.31
62926;BME280;55732;52.248;-0.844;2022-11-15T00:39:54;99463.90;;;8.68;96.58
62926;BME280;55732;52.248;-0.844;2022-11-15T00:42:20;99453.56;;;8.66;96.22
62926;BME280;55732;52.248;-0.844;2022-11-15T00:44:45;99446.39;;;8.63;96.25
62926;BME280;55732;52.248;-0.844;2022-11-15T00:47:10;99441.88;;;8.60;96.20
62926;BME280;55732;52.248;-0.844;2022-11-15T00:49:36;99439.11;;;8.58;95.96
62926;BME280;55732;52.248;-0.844;2022-11-15T00:52:01;99440.17;;;8.56;96.01
62926;BME280;55732;52.248;-0.844;2022-11-15T00:54:27;99431.23;;;8.54;95.81
62926;BME280;55732;52.248;-0.844;2022-11-15T00:56:52;99430.56;;;8.52;95.57
62926;BME280;55732;52.248;-0.844;2022-11-15T00:59:17;99424.79;;;8.50;95.79
62926;BME280;55732;52.248;-0.844;2022-11-15T01:01:43;99421.14;;;8.48;95.47
62926;BME280;55732;52.248;-0.844;2022-11-15T01:04:08;99416.09;;;8.46;95.37
62926;BME280;55732;52.248;-0.844;2022-11-15T01:06:34;99412.25;;;8.44;95.31
62926;BME280;55732;52.248;-0.844;2022-11-15T01:08:59;99408.40;;;8.42;95.08
62926;BME280;55732;52.248;-0.844;2022-11-15T01:11:24;99404.91;;;8.40;94.95
62926;BME280;55732;52.248;-0.844;2022-11-15T01:13:50;99401.42;;;8.39;95.20
62926;BME280;55732;52.248;-0.844;2022-11-15T01:16:17;99394.76;;;8.38;95.06
62926;BME280;55732;52.248;-0.844;2022-11-15T01:18:44;99389.19;;;8.37;95.00
62926;BME280;55732;52.248;-0.844;2022-11-15T01:21:14;99383.95;;;8.35;94.87
62926;BME280;55732;52.248;-0.844;2022-11-15T01:23:41;99379.40;;;8.34;94.74
62926;BME280;55732;52.248;-0.844;2022-11-15T01:26:09;99375.55;;;8.32;94.94
62926;BME280;55732;52.248;-0.844;2022-11-15T01:28:37;99371.68;;;8.31;94.93
62926;BME280;55732;52.248;-0.844;2022-11-15T01:31:05;99367.13;;;8.29;94.90
62926;BME280;55732;52.248;-0.844;2022-11-15T01:33:34;99361.69;;;8.29;94.89
62926;BME280;55732;52.248;-0.844;2022-11-15T01:36:03;99356.27;;;8.27;94.83
62926;BME280;55732;52.248;-0.844;2022-11-15T01:38:29;99355.39;;;8.28;94.91
62926;BME280;55732;52.248;-0.844;2022-11-15T01:40:54;99351.19;;;8.27;94.63
62926;BME280;55732;52.248;-0.844;2022-11-15T01:43:25;99341.58;;;8.26;94.74
62926;BME280;55732;52.248;-0.844;2022-11-15T01:45:56;99333.70;;;8.25;94.57
62926;BME280;55732;52.248;-0.844;2022-11-15T01:48:30;99331.95;;;8.25;94.70
62926;BME280;55732;52.248;-0.844;2022-11-15T01:50:58;99331.26;;;8.24;94.80
62926;BME280;55732;52.248;-0.844;2022-11-15T01:53:25;99327.05;;;8.24;94.59
62926;BME280;55732;52.248;-0.844;2022-11-15T01:55:52;99313.73;;;8.23;94.59
62926;BME280;55732;52.248;-0.844;2022-11-15T01:58:19;99304.80;;;8.23;94.60
62926;BME280;55732;52.248;-0.844;2022-11-15T02:00:45;99300.77;;;8.22;94.76
62926;BME280;55732;52.248;-0.844;2022-11-15T02:03:13;99302.51;;;8.23;94.85
62926;BME280;55732;52.248;-0.844;2022-11-15T02:05:39;99292.86;;;8.23;94.73
62926;BME280;55732;52.248;-0.844;2022-11-15T02:08:06;99290.94;;;8.23;94.73
62926;BME280;55732;52.248;-0.844;2022-11-15T02:10:32;99281.34;;;8.19;94.73
62926;BME280;55732;52.248;-0.844;2022-11-15T02:12:59;99276.77;;;8.21;94.68
62926;BME280;55732;52.248;-0.844;2022-11-15T02:15:31;99279.52;;;8.24;94.73
62926;BME280;55732;52.248;-0.844;2022-11-15T02:18:22;99278.46;;;8.25;94.70
62926;BME280;55732;52.248;-0.844;2022-11-15T02:21:02;99276.19;;;8.25;94.72
62926;BME280;55732;52.248;-0.844;2022-11-15T02:26:44;99273.73;;;8.24;94.57
62926;BME280;55732;52.248;-0.844;2022-11-15T02:29:35;99268.83;;;8.25;94.66
62926;BME280;55732;52.248;-0.844;2022-11-15T02:32:18;99260.73;;;8.26;94.64
62926;BME280;55732;52.248;-0.844;2022-11-15T02:37:39;99241.27;;;8.26;94.69
62926;BME280;55732;52.248;-0.844;2022-11-15T02:42:54;99223.35;;;8.27;94.62
62926;BME280;55732;52.248;-0.844;2022-11-15T02:45:55;99212.65;;;8.27;94.50
62926;BME280;55732;52.248;-0.844;2022-11-15T02:48:38;99207.05;;;8.27;94.66
62926;BME280;55732;52.248;-0.844;2022-11-15T02:51:23;99210.02;;;8.28;94.68
62926;BME280;55732;52.248;-0.844;2022-11-15T02:53:48;99201.23;;;8.29;94.71
62926;BME280;55732;52.248;-0.844;2022-11-15T03:10:26;99147.42;;;8.42;94.69
62926;BME280;55732;52.248;-0.844;2022-11-15T03:18:57;99134.74;;;8.56;94.64
62926;BME280;55732;52.248;-0.844;2022-11-15T03:21:25;99132.02;;;8.60;94.60
62926;BME280;55732;52.248;-0.844;2022-11-15T03:24:02;99132.48;;;8.65;94.70
62926;BME280;55732;52.248;-0.844;2022-11-15T03:26:49;99126.28;;;8.69;94.62
62926;BME280;55732;52.248;-0.844;2022-11-15T03:29:28;99121.27;;;8.74;94.54
62926;BME280;55732;52.248;-0.844;2022-11-15T03:32:02;99117.89;;;8.78;94.52
62926;BME280;55732;52.248;-0.844;2022-11-15T03:34:42;99119.94;;;8.81;94.51
62926;BME280;55732;52.248;-0.844;2022-11-15T03:37:17;99113.04;;;8.84;94.36
62926;BME280;55732;52.248;-0.844;2022-11-15T03:39:46;99115.06;;;8.87;94.36
62926;BME280;55732;52.248;-0.844;2022-11-15T03:45:43;99106.01;;;8.94;94.31
62926;BME280;55732;52.248;-0.844;2022-11-15T03:48:30;99099.44;;;8.97;94.19
62926;BME280;55732;52.248;-0.844;2022-11-15T03:50:59;99096.92;;;9.00;94.15
62926;BME280;55732;52.248;-0.844;2022-11-15T03:53:25;99095.27;;;9.06;94.22
62926;BME280;55732;52.248;-0.844;2022-11-15T03:55:54;99085.86;;;9.09;94.19
62926;BME280;55732;52.248;-0.844;2022-11-15T03:58:20;99084.76;;;9.12;94.26
62926;BME280;55732;52.248;-0.844;2022-11-15T04:00:51;99079.95;;;9.16;94.18
62926;BME280;55732;52.248;-0.844;2022-11-15T04:03:23;99075.46;;;9.21;94.12
62926;BME280;55732;52.248;-0.844;2022-11-15T04:05:48;99072.93;;;9.24;93.92
62926;BME280;55732;52.248;-0.844;2022-11-15T04:08:14;99070.38;;;9.29;93.87
62926;BME280;55732;52.248;-0.844;2022-11-15T04:10:39;99069.91;;;9.34;93.79
62926;BME280;55732;52.248;-0.844;2022-11-15T04:13:08;99065.42;;;9.39;93.75
62926;BME280;55732;52.248;-0.844;2022-11-15T04:15:38;99064.30;;;9.43;93.74
62926;BME280;55732;52.248;-0.844;2022-11-15T04:18:04;99061.90;;;9.47;93.47
62926;BME280;55732;52.248;-0.844;2022-11-15T04:20:36;99056.40;;;9.51;93.27
62926;BME280;55732;52.248;-0.844;2022-11-15T04:23:22;99047.73;;;9.55;93.11
62926;BME280;55732;52.248;-0.844;2022-11-15T04:26:19;99038.51;;;9.58;93.15
62926;BME280;55732;52.248;-0.844;2022-11-15T04:28:46;99030.21;;;9.59;93.18
62926;BME280;55732;52.248;-0.844;2022-11-15T04:31:30;99031.23;;;9.61;93.18
62926;BME280;55732;52.248;-0.844;2022-11-15T04:34:02;99037.18;;;9.62;93.08
62926;BME280;55732;52.248;-0.844;2022-11-15T04:36:31;99026.97;;;9.63;93.10
62926;BME280;55732;52.248;-0.844;2022-11-15T04:39:15;99013.77;;;9.64;93.17
62926;BME280;55732;52.248;-0.844;2022-11-15T04:41:41;99017.08;;;9.65;93.19
62926;BME280;55732;52.248;-0.844;2022-11-15T04:44:12;99013.91;;;9.65;93.24
62926;BME280;55732;52.248;-0.844;2022-11-15T04:46:46;99008.09;;;9.66;93.10
62926;BME280;55732;52.248;-0.844;2022-11-15T04:49:15;99001.20;;;9.67;93.20
62926;BME280;55732;52.248;-0.844;2022-11-15T04:51:40;98996.79;;;9.68;93.21
62926;BME280;55732;52.248;-0.844;2022-11-15T04:54:06;98990.95;;;9.69;93.33
62926;BME280;55732;52.248;-0.844;2022-11-15T04:56:34;98987.09;;;9.69;93.30
62926;BME280;55732;52.248;-0.844;2022-11-15T04:59:00;98986.56;;;9.69;93.31
62926;BME280;55732;52.248;-0.844;2022-11-15T05:01:26;98985.33;;;9.70;93.53
62926;BME280;55732;52.248;-0.844;2022-11-15T05:04:12;98977.59;;;9.69;93.57
62926;BME280;55732;52.248;-0.844;2022-11-15T05:06:59;98971.77;;;9.70;93.61
62926;BME280;55732;52.248;-0.844;2022-11-15T05:09:27;98967.90;;;9.71;93.62
62926;BME280;55732;52.248;-0.844;2022-11-15T05:11:59;98964.37;;;9.71;93.67
62926;BME280;55732;52.248;-0.844;2022-11-15T05:14:24;98957.70;;;9.71;93.77
62926;BME280;55732;52.248;-0.844;2022-11-15T05:16:49;98954.15;;;9.73;93.92
62926;BME280;55732;52.248;-0.844;2022-11-15T05:19:18;98948.67;;;9.74;94.02
62926;BME280;55732;52.248;-0.844;2022-11-15T05:21:44;98945.85;;;9.75;94.03
62926;BME280;55732;52.248;-0.844;2022-11-15T05:24:10;98941.95;;;9.76;94.06
62926;BME280;55732;52.248;-0.844;2022-11-15T05:26:42;98933.48;;;9.77;94.17
62926;BME280;55732;52.248;-0.844;2022-11-15T05:29:12;98925.54;;;9.78;94.26
62926;BME280;55732;52.248;-0.844;2022-11-15T05:31:39;98927.43;;;9.80;94.39
62926;BME280;55732;52.248;-0.844;2022-11-15T05:34:09;98917.36;;;9.82;94.49
62926;BME280;55732;52.248;-0.844;2022-11-15T05:36:42;98909.23;;;9.84;94.49
62926;BME280;55732;52.248;-0.844;2022-11-15T05:39:12;98908.81;;;9.87;94.62
62926;BME280;55732;52.248;-0.844;2022-11-15T05:41:46;98905.09;;;9.89;94.84
62926;BME280;55732;52.248;-0.844;2022-11-15T05:44:17;98898.15;;;9.91;94.95
62926;BME280;55732;52.248;-0.844;2022-11-15T05:47:00;98896.48;;;9.94;95.06
62926;BME280;55732;52.248;-0.844;2022-11-15T05:49:31;98888.73;;;9.95;95.15
62926;BME280;55732;52.248;-0.844;2022-11-15T05:51:58;98881.65;;;9.97;95.11
62926;BME280;55732;52.248;-0.844;2022-11-15T05:54:24;98876.34;;;9.98;95.21
62926;BME280;55732;52.248;-0.844;2022-11-15T05:56:50;98871.20;;;10.00;95.27
62926;BME280;55732;52.248;-0.844;2022-11-15T05:59:17;98869.94;;;10.01;95.24
62926;BME280;55732;52.248;-0.844;2022-11-15T06:01:43;98866.21;;;10.02;95.24
62926;BME280;55732;52.248;-0.844;2022-11-15T06:04:08;98862.45;;;10.04;95.25
62926;BME280;55732;52.248;-0.844;2022-11-15T06:06:34;98864.52;;;10.06;95.27
62926;BME280;55732;52.248;-0.844;2022-11-15T06:08:59;98860.64;;;10.07;95.15
62926;BME280;55732;52.248;-0.844;2022-11-15T06:11:24;98856.20;;;10.08;95.29
62926;BME280;55732;52.248;-0.844;2022-11-15T06:13:50;98849.84;;;10.09;95.28
62926;BME280;55732;52.248;-0.844;2022-11-15T06:16:15;98842.61;;;10.10;95.29
62926;BME280;55732;52.248;-0.844;2022-11-15T06:18:51;98840.83;;;10.11;95.68
62926;BME280;55732;52.248;-0.844;2022-11-15T06:21:17;98836.06;;;10.12;95.65
62926;BME280;55732;52.248;-0.844;2022-11-15T06:23:43;98831.16;;;10.11;95.77
62926;BME280;55732;52.248;-0.844;2022-11-15T06:26:08;98827.14;;;10.10;95.98
62926;BME280;55732;52.248;-0.844;2022-11-15T06:28:33;98821.17;;;10.09;96.09
62926;BME280;55732;52.248;-0.844;2022-11-15T06:31:07;98822.95;;;10.09;96.37
62926;BME280;55732;52.248;-0.844;2022-11-15T06:33:33;98819.96;;;10.09;96.29
62926;BME280;55732;52.248;-0.844;2022-11-15T06:36:07;98818.37;;;10.09;96.51
62926;BME280;55732;52.248;-0.844;2022-11-15T06:38:33;98816.94;;;10.10;96.59
62926;BME280;55732;52.248;-0.844;2022-11-15T06:41:08;98815.69;;;10.11;96.55
62926;BME280;55732;52.248;-0.844;2022-11-15T06:43:34;98814.42;;;10.12;96.66
62926;BME280;55732;52.248;-0.844;2022-11-15T06:46:01;98810.73;;;10.12;96.73
62926;BME280;55732;52.248;-0.844;2022-11-15T06:48:27;98808.76;;;10.14;96.69
62926;BME280;55732;52.248;-0.844;2022-11-15T06:50:58;98805.52;;;10.15;96.81
62926;BME280;55732;52.248;-0.844;2022-11-15T06:53:24;98805.87;;;10.15;96.78
62926;BME280;55732;52.248;-0.844;2022-11-15T06:55:50;98799.90;;;10.15;97.09
62926;BME280;55732;52.248;-0.844;2022-11-15T06:58:16;98797.42;;;10.15;97.24
62926;BME280;55732;52.248;-0.844;2022-11-15T07:00:42;98796.20;;;10.15;97.17
62926;BME280;55732;52.248;-0.844;2022-11-15T07:03:08;98792.33;;;10.15;97.39
62926;BME280;55732;52.248;-0.844;2022-11-15T07:05:33;98790.80;;;10.14;97.59
62926;BME280;55732;52.248;-0.844;2022-11-15T07:07:59;98787.84;;;10.13;97.78
62926;BME280;55732;52.248;-0.844;2022-11-15T07:10:26;98782.75;;;10.13;97.95
62926;BME280;55732;52.248;-0.844;2022-11-15T07:12:52;98783.27;;;10.14;98.21
62926;BME280;55732;52.248;-0.844;2022-11-15T07:15:19;98779.33;;;10.15;98.16
62926;BME280;55732;52.248;-0.844;2022-11-15T07:17:45;98777.73;;;10.16;98.15
62926;BME280;55732;52.248;-0.844;2022-11-15T07:20:11;98776.98;;;10.17;98.25
62926;BME280;55732;52.248;-0.844;2022-11-15T07:22:38;98772.05;;;10.18;98.51
62926;BME280;55732;52.248;-0.844;2022-11-15T07:25:04;98767.99;;;10.19;98.57
62926;BME280;55732;52.248;-0.844;2022-11-15T07:27:29;98764.48;;;10.20;98.64
62926;BME280;55732;52.248;-0.844;2022-11-15T07:29:54;98757.59;;;10.21;99.04
62926;BME280;55732;52.248;-0.844;2022-11-15T07:32:20;98754.23;;;10.21;99.11
62926;BME280;55732;52.248;-0.844;2022-11-15T07:34:45;98750.53;;;10.22;99.13
62926;BME280;55732;52.248;-0.844;2022-11-15T07:37:12;98750.00;;;10.22;99.27
62926;BME280;55732;52.248;-0.844;2022-11-15T07:39:37;98747.70;;;10.22;99.37
62926;BME280;55732;52.248;-0.844;2022-11-15T07:42:03;98739.08;;;10.22;99.35
62926;BME280;55732;52.248;-0.844;2022-11-15T07:44:47;98731.86;;;10.22;99.60
62926;BME280;55732;52.248;-0.844;2022-11-15T07:47:13;98734.99;;;10.24;99.60
62926;BME280;55732;52.248;-0.844;2022-11-15T07:49:38;98732.66;;;10.25;99.67
62926;BME280;55732;52.248;-0.844;2022-11-15T07:52:04;98731.73;;;10.27;99.72
62926;BME280;55732;52.248;-0.844;2022-11-15T07:54:29;98723.95;;;10.28;99.76
62926;BME280;55732;52.248;-0.844;2022-11-15T07:56:55;98724.10;;;10.29;99.89
62926;BME280;55732;52.248;-0.844;2022-11-15T07:59:20;98727.38;;;10.31;99.99
62926;BME280;55732;52.248;-0.844;2022-11-15T08:01:45;98722.76;;;10.33;99.97
62926;BME280;55732;52.248;-0.844;2022-11-15T08:04:11;98722.89;;;10.34;99.98
62926;BME280;55732;52.248;-0.844;2022-11-15T08:06:37;98717.75;;;10.35;100.00
62926;BME280;55732;52.248;-0.844;2022-11-15T08:09:03;98711.55;;;10.37;100.00
62926;BME280;55732;52.248;-0.844;2022-11-15T08:11:28;98704.33;;;10.37;100.00
62926;BME280;55732;52.248;-0.844;2022-11-15T08:13:54;98705.10;;;10.40;100.00
62926;BME280;55732;52.248;-0.844;2022-11-15T08:16:20;98699.98;;;10.41;100.00
62926;BME280;55732;52.248;-0.844;2022-11-15T08:18:45;98699.79;;;10.41;100.00
62926;BME280;55732;52.248;-0.844;2022-11-15T08:21:14;98699.91;;;10.43;100.00
62926;BME280;55732;52.248;-0.844;2022-11-15T08:23:42;98696.73;;;10.43;100.00
62926;BME280;55732;52.248;-0.844;2022-11-15T08:26:08;98687.39;;;10.44;100.00
62926;BME280;55732;52.248;-0.844;2022-11-15T08:28:34;98682.98;;;10.44;100.00
62926;BME280;55732;52.248;-0.844;2022-11-15T08:30:59;98678.20;;;10.46;100.00
62926;BME280;55732;52.248;-0.844;2022-11-15T08:33:25;98676.57;;;10.47;100.00
62926;BME280;55732;52.248;-0.844;2022-11-15T08:35:50;98668.27;;;10.48;100.00
62926;BME280;55732;52.248;-0.844;2022-11-15T08:38:15;98663.48;;;10.50;100.00
62926;BME280;55732;52.248;-0.844;2022-11-15T08:40:41;98662.86;;;10.52;100.00
62926;BME280;55732;52.248;-0.844;2022-11-15T08:43:07;98652.77;;;10.54;100.00
62926;BME280;55732;52.248;-0.844;2022-11-15T08:45:34;98651.13;;;10.56;100.00
62926;BME280;55732;52.248;-0.844;2022-11-15T08:48:01;98649.15;;;10.57;100.00
62926;BME280;55732;52.248;-0.844;2022-11-15T08:50:27;98643.79;;;10.60;100.00
62926;BME280;55732;52.248;-0.844;2022-11-15T08:52:52;98635.57;;;10.63;100.00
62926;BME280;55732;52.248;-0.844;2022-11-15T08:55:18;98633.36;;;10.66;100.00
62926;BME280;55732;52.248;-0.844;2022-11-15T08:57:43;98630.67;;;10.68;100.00
62926;BME280;55732;52.248;-0.844;2022-11-15T09:00:09;98627.27;;;10.70;100.00
62926;BME280;55732;52.248;-0.844;2022-11-15T09:02:38;98626.31;;;10.72;100.00
62926;BME280;55732;52.248;-0.844;2022-11-15T09:05:04;98619.59;;;10.73;100.00
62926;BME280;55732;52.248;-0.844;2022-11-15T09:07:30;98616.75;;;10.73;100.00
62926;BME280;55732;52.248;-0.844;2022-11-15T09:09:57;98612.66;;;10.74;100.00
62926;BME280;55732;52.248;-0.844;2022-11-15T09:12:23;98604.73;;;10.74;100.00
62926;BME280;55732;52.248;-0.844;2022-11-15T09:14:48;98603.48;;;10.75;100.00
62926;BME280;55732;52.248;-0.844;2022-11-15T09:17:14;98603.11;;;10.75;100.00
62926;BME280;55732;52.248;-0.844;2022-11-15T09:19:39;98600.79;;;10.77;100.00
62926;BME280;55732;52.248;-0.844;2022-11-15T09:22:06;98587.55;;;10.78;100.00
62926;BME280;55732;52.248;-0.844;2022-11-15T09:24:31;98586.79;;;10.80;100.00
62926;BME280;55732;52.248;-0.844;2022-11-15T09:26:57;98581.11;;;10.81;100.00
62926;BME280;55732;52.248;-0.844;2022-11-15T09:29:22;98583.01;;;10.82;100.00
62926;BME280;55732;52.248;-0.844;2022-11-15T09:31:48;98577.70;;;10.83;100.00
62926;BME280;55732;52.248;-0.844;2022-11-15T09:34:13;98574.85;;;10.84;100.00
62926;BME280;55732;52.248;-0.844;2022-11-15T09:36:39;98569.82;;;10.86;100.00
62926;BME280;55732;52.248;-0.844;2022-11-15T09:39:05;98566.02;;;10.90;100.00
62926;BME280;55732;52.248;-0.844;2022-11-15T09:44:46;98560.77;;;10.94;100.00
62926;BME280;55732;52.248;-0.844;2022-11-15T09:50:41;98551.48;;;10.98;100.00
62926;BME280;55732;52.248;-0.844;2022-11-15T09:53:13;98542.81;;;10.98;100.00
62926;BME280;55732;52.248;-0.844;2022-11-15T09:56:11;98542.59;;;11.00;100.00
62926;BME280;55732;52.248;-0.844;2022-11-15T09:58:58;98538.37;;;11.00;100.00
62926;BME280;55732;52.248;-0.844;2022-11-15T10:04:14;98531.45;;;11.01;100.00
62926;BME280;55732;52.248;-0.844;2022-11-15T10:06:49;98527.00;;;11.03;100.00
62926;BME280;55732;52.248;-0.844;2022-11-15T10:09:28;98528.36;;;11.04;100.00
62926;BME280;55732;52.248;-0.844;2022-11-15T10:11:57;98522.52;;;11.05;100.00
62926;BME280;55732;52.248;-0.844;2022-11-15T10:14:25;98519.13;;;11.06;100.00
62926;BME280;55732;52.248;-0.844;2022-11-15T10:22:29;98511.15;;;11.08;100.00
62926;BME280;55732;52.248;-0.844;2022-11-15T10:25:17;98506.30;;;11.10;100.00
62926;BME280;55732;52.248;-0.844;2022-11-15T10:27:54;98504.98;;;11.12;100.00
62926;BME280;55732;52.248;-0.844;2022-11-15T10:30:20;98504.04;;;11.14;100.00
62926;BME280;55732;52.248;-0.844;2022-11-15T10:32:47;98504.70;;;11.15;100.00
62926;BME280;55732;52.248;-0.844;2022-11-15T10:35:30;98498.27;;;11.17;100.00
62926;BME280;55732;52.248;-0.844;2022-11-15T10:38:07;98491.83;;;11.20;100.00
62926;BME280;55732;52.248;-0.844;2022-11-15T10:40:34;98488.21;;;11.22;100.00
62926;BME280;55732;52.248;-0.844;2022-11-15T10:43:13;98481.98;;;11.25;100.00
62926;BME280;55732;52.248;-0.844;2022-11-15T10:45:39;98476.27;;;11.27;100.00
62926;BME280;55732;52.248;-0.844;2022-11-15T10:50:40;98460.18;;;11.28;100.00
62926;BME280;55732;52.248;-0.844;2022-11-15T10:53:22;98449.05;;;11.29;100.00
62926;BME280;55732;52.248;-0.844;2022-11-15T10:55:52;98446.36;;;11.30;100.00
62926;BME280;55732;52.248;-0.844;2022-11-15T11:00:47;98427.64;;;11.32;100.00
62926;BME280;55732;52.248;-0.844;2022-11-15T11:03:34;98427.44;;;11.32;100.00
62926;BME280;55732;52.248;-0.844;2022-11-15T11:06:15;98415.25;;;11.33;100.00
62926;BME280;55732;52.248;-0.844;2022-11-15T11:11:19;98392.70;;;11.33;100.00
62926;BME280;55732;52.248;-0.844;2022-11-15T11:13:44;98383.34;;;11.33;100.00
62926;BME280;55732;52.248;-0.844;2022-11-15T11:27:16;98360.11;;;11.37;100.00
62926;BME280;55732;52.248;-0.844;2022-11-15T11:32:49;98353.39;;;11.38;100.00
62926;BME280;55732;52.248;-0.844;2022-11-15T11:35:36;98345.13;;;11.37;100.00
62926;BME280;55732;52.248;-0.844;2022-11-15T11:38:17;98345.14;;;11.37;100.00
62926;BME280;55732;52.248;-0.844;2022-11-15T11:40:59;98339.52;;;11.36;100.00
62926;BME280;55732;52.248;-0.844;2022-11-15T11:43:41;98332.81;;;11.37;100.00
62926;BME280;55732;52.248;-0.844;2022-11-15T11:51:24;98319.09;;;11.41;100.00
62926;BME280;55732;52.248;-0.844;2022-11-15T11:54:24;98313.21;;;11.42;100.00
62926;BME280;55732;52.248;-0.844;2022-11-15T11:56:52;98300.46;;;11.44;100.00
62926;BME280;55732;52.248;-0.844;2022-11-15T11:59:31;98305.32;;;11.45;100.00
62926;BME280;55732;52.248;-0.844;2022-11-15T12:02:08;98300.17;;;11.46;100.00
62926;BME280;55732;52.248;-0.844;2022-11-15T12:04:44;98298.55;;;11.47;100.00
62926;BME280;55732;52.248;-0.844;2022-11-15T12:09:59;98296.58;;;11.48;100.00
62926;BME280;55732;52.248;-0.844;2022-11-15T12:12:49;98294.09;;;11.48;100.00
62926;BME280;55732;52.248;-0.844;2022-11-15T12:15:21;98286.82;;;11.49;100.00
62926;BME280;55732;52.248;-0.844;2022-11-15T12:17:48;98269.84;;;11.51;100.00
62926;BME280;55732;52.248;-0.844;2022-11-15T12:20:19;98269.58;;;11.53;100.00
62926;BME280;55732;52.248;-0.844;2022-11-15T12:25:41;98251.29;;;11.60;100.00
62926;BME280;55732;52.248;-0.844;2022-11-15T12:31:02;98242.45;;;11.70;100.00
62926;BME280;55732;52.248;-0.844;2022-11-15T12:36:02;98225.13;;;11.75;100.00
62926;BME280;55732;52.248;-0.844;2022-11-15T12:38:52;98221.86;;;11.77;100.00
62926;BME280;55732;52.248;-0.844;2022-11-15T12:41:23;98219.20;;;11.81;100.00
62926;BME280;55732;52.248;-0.844;2022-11-15T12:43:50;98213.79;;;11.84;100.00
62926;BME280;55732;52.248;-0.844;2022-11-15T12:46:22;98205.98;;;11.85;100.00
62926;BME280;55732;52.248;-0.844;2022-11-15T12:48:57;98202.77;;;11.86;100.00
62926;BME280;55732;52.248;-0.844;2022-11-15T12:59:52;98193.52;;;11.92;100.00
62926;BME280;55732;52.248;-0.844;2022-11-15T13:02:22;98192.25;;;11.92;100.00
62926;BME280;55732;52.248;-0.844;2022-11-15T13:04:50;98191.91;;;11.92;100.00
62926;BME280;55732;52.248;-0.844;2022-11-15T13:13:02;98209.91;;;11.92;100.00
62926;BME280;55732;52.248;-0.844;2022-11-15T13:15:37;98198.39;;;11.98;100.00
62926;BME280;55732;52.248;-0.844;2022-11-15T13:18:37;98186.64;;;12.03;100.00
62926;BME280;55732;52.248;-0.844;2022-11-15T13:21:05;98177.36;;;12.10;100.00
62926;BME280;55732;52.248;-0.844;2022-11-15T13:24:03;98181.31;;;12.16;100.00
62926;BME280;55732;52.248;-0.844;2022-11-15T13:26:30;98179.49;;;12.24;100.00
62926;BME280;55732;52.248;-0.844;2022-11-15T13:28:56;98180.33;;;12.44;100.00
62926;BME280;55732;52.248;-0.844;2022-11-15T13:31:41;98177.78;;;12.68;100.00
62926;BME280;55732;52.248;-0.844;2022-11-15T13:34:27;98179.75;;;12.96;100.00
62926;BME280;55732;52.248;-0.844;2022-11-15T13:36:53;98167.67;;;13.26;100.00
62926;BME280;55732;52.248;-0.844;2022-11-15T13:41:51;98155.77;;;13.68;98.55
62926;BME280;55732;52.248;-0.844;2022-11-15T13:44:29;98151.17;;;13.88;97.68
62926;BME280;55732;52.248;-0.844;2022-11-15T13:47:07;98157.73;;;13.98;96.33
62926;BME280;55732;52.248;-0.844;2022-11-15T13:49:37;98170.34;;;14.04;95.30
62926;BME280;55732;52.248;-0.844;2022-11-15T13:52:06;98176.20;;;14.16;94.91
62926;BME280;55732;52.248;-0.844;2022-11-15T13:57:24;98169.52;;;14.32;93.85
62926;BME280;55732;52.248;-0.844;2022-11-15T13:59:56;98171.39;;;14.30;92.92
62926;BME280;55732;52.248;-0.844;2022-11-15T14:02:27;98181.69;;;14.23;92.49
62926;BME280;55732;52.248;-0.844;2022-11-15T14:05:03;98185.02;;;14.17;92.09
62926;BME280;55732;52.248;-0.844;2022-11-15T14:07:30;98193.70;;;14.10;91.88
62926;BME280;55732;52.248;-0.844;2022-11-15T14:09:57;98197.05;;;14.04;92.23
62926;BME280;55732;52.248;-0.844;2022-11-15T14:14:55;98198.44;;;13.91;92.02
62926;BME280;55732;52.248;-0.844;2022-11-15T14:19:57;98188.13;;;13.79;92.28
62926;BME280;55732;52.248;-0.844;2022-11-15T14:22:27;98194.58;;;13.73;92.64
62926;BME280;55732;52.248;-0.844;2022-11-15T14:28:28;98198.09;;;13.60;92.65
62926;BME280;55732;52.248;-0.844;2022-11-15T14:30:57;98201.73;;;13.55;92.84
62926;BME280;55732;52.248;-0.844;2022-11-15T14:33:31;98204.55;;;13.55;93.09
62926;BME280;55732;52.248;-0.844;2022-11-15T14:36:02;98198.34;;;13.52;93.04
62926;BME280;55732;52.248;-0.844;2022-11-15T14:38:28;98200.09;;;13.46;93.11
62926;BME280;55732;52.248;-0.844;2022-11-15T14:40:54;98207.69;;;13.39;93.34
62926;BME280;55732;52.248;-0.844;2022-11-15T14:43:21;98212.24;;;13.33;93.64
62926;BME280;55732;52.248;-0.844;2022-11-15T14:45:47;98222.49;;;13.29;93.95
62926;BME280;55732;52.248;-0.844;2022-11-15T14:48:12;98218.59;;;13.30;94.12
62926;BME280;55732;52.248;-0.844;2022-11-15T14:50:38;98223.60;;;13.32;93.59
62926;BME280;55732;52.248;-0.844;2022-11-15T14:53:04;98223.12;;;13.31;93.29
62926;BME280;55732;52.248;-0.844;2022-11-15T14:55:34;98221.13;;;13.28;92.75
62926;BME280;55732;52.248;-0.844;2022-11-15T14:58:06;98220.45;;;13.24;92.30